sensor_id;sensor_type;location;lat;lon;timestamp;pressure;altitude;pressure_sealevel;temperature
64790;BMP280;51223;51.816;5.862;2022-12-18T00:01:04;102780.81;;;-3.45
64790;BMP280;51223;51.816;5.862;2022-12-18T00:03:33;102778.25;;;-3.21
64790;BMP280;51223;51.816;5.862;2022-12-18T00:05:59;102777.59;;;-3.02
64790;BMP280;51223;51.816;5.862;2022-12-18T00:08:25;102768.25;;;-2.96
64790;BMP280;51223;51.816;5.862;2022-12-18T00:10:51;102770.91;;;-2.81
64790;BMP280;51223;51.816;5.862;2022-12-18T00:13:17;102781.34;;;-2.78
64790;BMP280;51223;51.816;5.862;2022-12-18T00:15:42;102788.88;;;-2.55
64790;BMP280;51223;51.816;5.862;2022-12-18T00:18:08;102779.97;;;-2.75
64790;BMP280;51223;51.816;5.862;2022-12-18T00:20:39;102788.50;;;-2.82
64790;BMP280;51223;51.816;5.862;2022-12-18T00:23:06;102784.81;;;-3.27
64790;BMP280;51223;51.816;5.862;2022-12-18T00:25:35;102783.75;;;-3.31
64790;BMP280;51223;51.816;5.862;2022-12-18T00:28:04;102780.97;;;-3.16
64790;BMP280;51223;51.816;5.862;2022-12-18T00:30:30;102770.44;;;-2.93
64790;BMP280;51223;51.816;5.862;2022-12-18T00:32:57;102766.59;;;-2.92
64790;BMP280;51223;51.816;5.862;2022-12-18T00:35:23;102765.25;;;-3.00
64790;BMP280;51223;51.816;5.862;2022-12-18T00:37:48;102767.16;;;-3.00
64790;BMP280;51223;51.816;5.862;2022-12-18T00:40:14;102760.00;;;-2.91
64790;BMP280;51223;51.816;5.862;2022-12-18T00:42:40;102759.75;;;-3.00
64790;BMP280;51223;51.816;5.862;2022-12-18T00:45:29;102762.72;;;-2.86
64790;BMP280;51223;51.816;5.862;2022-12-18T00:47:55;102771.44;;;-2.74
64790;BMP280;51223;51.816;5.862;2022-12-18T00:50:23;102778.69;;;-2.93
64790;BMP280;51223;51.816;5.862;2022-12-18T00:52:49;102777.13;;;-3.15
64790;BMP280;51223;51.816;5.862;2022-12-18T00:55:16;102770.97;;;-2.91
64790;BMP280;51223;51.816;5.862;2022-12-18T00:57:42;102760.81;;;-2.91
64790;BMP280;51223;51.816;5.862;2022-12-18T01:00:11;102769.53;;;-3.38
64790;BMP280;51223;51.816;5.862;2022-12-18T01:02:38;102774.63;;;-3.06
64790;BMP280;51223;51.816;5.862;2022-12-18T01:05:04;102772.75;;;-2.66
64790;BMP280;51223;51.816;5.862;2022-12-18T01:07:30;102760.25;;;-2.88
64790;BMP280;51223;51.816;5.862;2022-12-18T01:09:56;102767.81;;;-3.29
64790;BMP280;51223;51.816;5.862;2022-12-18T01:12:22;102772.66;;;-3.00
64790;BMP280;51223;51.816;5.862;2022-12-18T01:14:48;102768.47;;;-2.88
64790;BMP280;51223;51.816;5.862;2022-12-18T01:17:13;102773.25;;;-3.09
64790;BMP280;51223;51.816;5.862;2022-12-18T01:19:40;102767.09;;;-2.85
64790;BMP280;51223;51.816;5.862;2022-12-18T01:22:05;102754.22;;;-2.95
64790;BMP280;51223;51.816;5.862;2022-12-18T01:24:31;102763.94;;;-3.13
64790;BMP280;51223;51.816;5.862;2022-12-18T01:26:57;102756.16;;;-2.95
64790;BMP280;51223;51.816;5.862;2022-12-18T01:29:23;102751.25;;;-3.03
64790;BMP280;51223;51.816;5.862;2022-12-18T01:31:49;102748.81;;;-3.05
64790;BMP280;51223;51.816;5.862;2022-12-18T01:34:15;102761.44;;;-3.04
64790;BMP280;51223;51.816;5.862;2022-12-18T01:36:41;102768.88;;;-3.10
64790;BMP280;51223;51.816;5.862;2022-12-18T01:39:11;102763.03;;;-2.98
64790;BMP280;51223;51.816;5.862;2022-12-18T01:41:37;102764.22;;;-3.14
64790;BMP280;51223;51.816;5.862;2022-12-18T01:52:47;102771.63;;;-3.10
64790;BMP280;51223;51.816;5.862;2022-12-18T01:55:16;102766.72;;;-3.28
64790;BMP280;51223;51.816;5.862;2022-12-18T01:57:43;102766.06;;;-2.94
64790;BMP280;51223;51.816;5.862;2022-12-18T02:00:14;102765.97;;;-2.84
64790;BMP280;51223;51.816;5.862;2022-12-18T02:02:41;102766.38;;;-3.06
64790;BMP280;51223;51.816;5.862;2022-12-18T02:05:10;102759.47;;;-2.93
64790;BMP280;51223;51.816;5.862;2022-12-18T02:10:25;102763.03;;;-2.93
64790;BMP280;51223;51.816;5.862;2022-12-18T02:12:58;102765.56;;;-3.06
64790;BMP280;51223;51.816;5.862;2022-12-18T02:18:10;102770.97;;;-2.91
64790;BMP280;51223;51.816;5.862;2022-12-18T02:20:54;102773.31;;;-3.19
64790;BMP280;51223;51.816;5.862;2022-12-18T02:24:27;102769.75;;;-3.29
64790;BMP280;51223;51.816;5.862;2022-12-18T02:26:33;102766.66;;;-3.08
64790;BMP280;51223;51.816;5.862;2022-12-18T02:29:26;102756.47;;;-3.02
64790;BMP280;51223;51.816;5.862;2022-12-18T02:31:55;102759.28;;;-3.12
64790;BMP280;51223;51.816;5.862;2022-12-18T02:34:26;102763.69;;;-3.21
64790;BMP280;51223;51.816;5.862;2022-12-18T02:36:53;102763.16;;;-3.23
64790;BMP280;51223;51.816;5.862;2022-12-18T02:39:21;102757.97;;;-3.20
64790;BMP280;51223;51.816;5.862;2022-12-18T02:41:49;102758.47;;;-3.13
64790;BMP280;51223;51.816;5.862;2022-12-18T02:44:16;102758.78;;;-3.19
64790;BMP280;51223;51.816;5.862;2022-12-18T02:46:52;102762.09;;;-3.38
64790;BMP280;51223;51.816;5.862;2022-12-18T02:49:36;102757.22;;;-3.51
64790;BMP280;51223;51.816;5.862;2022-12-18T02:52:24;102755.19;;;-3.25
64790;BMP280;51223;51.816;5.862;2022-12-18T02:57:42;102764.78;;;-3.12
64790;BMP280;51223;51.816;5.862;2022-12-18T03:00:16;102755.22;;;-3.20
64790;BMP280;51223;51.816;5.862;2022-12-18T03:05:19;102739.41;;;-3.48
64790;BMP280;51223;51.816;5.862;2022-12-18T03:07:51;102749.75;;;-3.35
64790;BMP280;51223;51.816;5.862;2022-12-18T03:10:23;102751.16;;;-3.43
64790;BMP280;51223;51.816;5.862;2022-12-18T03:13:04;102749.22;;;-3.37
64790;BMP280;51223;51.816;5.862;2022-12-18T03:15:36;102738.00;;;-3.46
64790;BMP280;51223;51.816;5.862;2022-12-18T03:18:06;102743.81;;;-3.78
64790;BMP280;51223;51.816;5.862;2022-12-18T03:20:34;102747.69;;;-3.74
64790;BMP280;51223;51.816;5.862;2022-12-18T03:23:07;102734.22;;;-3.60
64790;BMP280;51223;51.816;5.862;2022-12-18T03:25:39;102739.41;;;-3.53
64790;BMP280;51223;51.816;5.862;2022-12-18T03:28:08;102740.00;;;-3.82
64790;BMP280;51223;51.816;5.862;2022-12-18T03:30:35;102741.06;;;-3.62
64790;BMP280;51223;51.816;5.862;2022-12-18T03:33:08;102738.31;;;-3.57
64790;BMP280;51223;51.816;5.862;2022-12-18T03:35:40;102729.03;;;-3.82
64790;BMP280;51223;51.816;5.862;2022-12-18T03:38:07;102718.31;;;-3.58
64790;BMP280;51223;51.816;5.862;2022-12-18T03:43:51;102708.44;;;-3.59
64790;BMP280;51223;51.816;5.862;2022-12-18T03:46:30;102709.78;;;-3.61
64790;BMP280;51223;51.816;5.862;2022-12-18T03:49:09;102712.25;;;-3.55
64790;BMP280;51223;51.816;5.862;2022-12-18T03:51:50;102705.50;;;-3.88
64790;BMP280;51223;51.816;5.862;2022-12-18T03:54:17;102701.63;;;-3.82
64790;BMP280;51223;51.816;5.862;2022-12-18T03:56:50;102703.75;;;-3.63
64790;BMP280;51223;51.816;5.862;2022-12-18T03:59:18;102702.16;;;-3.80
64790;BMP280;51223;51.816;5.862;2022-12-18T04:01:49;102701.81;;;-3.53
64790;BMP280;51223;51.816;5.862;2022-12-18T04:04:17;102695.25;;;-3.62
64790;BMP280;51223;51.816;5.862;2022-12-18T04:06:45;102693.91;;;-3.64
64790;BMP280;51223;51.816;5.862;2022-12-18T04:09:13;102693.06;;;-3.60
64790;BMP280;51223;51.816;5.862;2022-12-18T04:11:40;102692.41;;;-3.36
64790;BMP280;51223;51.816;5.862;2022-12-18T04:14:06;102702.09;;;-3.54
64790;BMP280;51223;51.816;5.862;2022-12-18T04:16:32;102694.44;;;-3.57
64790;BMP280;51223;51.816;5.862;2022-12-18T04:18:58;102686.75;;;-3.60
64790;BMP280;51223;51.816;5.862;2022-12-18T04:21:24;102681.81;;;-3.63
64790;BMP280;51223;51.816;5.862;2022-12-18T04:23:50;102675.25;;;-3.62
64790;BMP280;51223;51.816;5.862;2022-12-18T04:26:16;102683.19;;;-3.56
64790;BMP280;51223;51.816;5.862;2022-12-18T04:28:42;102674.13;;;-3.56
64790;BMP280;51223;51.816;5.862;2022-12-18T04:31:08;102668.09;;;-3.53
64790;BMP280;51223;51.816;5.862;2022-12-18T04:33:33;102666.72;;;-3.56
64790;BMP280;51223;51.816;5.862;2022-12-18T04:35:59;102659.88;;;-3.58
64790;BMP280;51223;51.816;5.862;2022-12-18T04:38:25;102663.13;;;-3.51
64790;BMP280;51223;51.816;5.862;2022-12-18T04:40:51;102660.94;;;-3.49
64790;BMP280;51223;51.816;5.862;2022-12-18T04:43:17;102670.81;;;-3.48
64790;BMP280;51223;51.816;5.862;2022-12-18T04:45:42;102668.13;;;-3.58
64790;BMP280;51223;51.816;5.862;2022-12-18T04:48:08;102670.84;;;-3.63
64790;BMP280;51223;51.816;5.862;2022-12-18T04:50:34;102675.22;;;-3.47
64790;BMP280;51223;51.816;5.862;2022-12-18T04:53:00;102672.41;;;-3.37
64790;BMP280;51223;51.816;5.862;2022-12-18T04:55:26;102668.66;;;-3.61
64790;BMP280;51223;51.816;5.862;2022-12-18T04:57:52;102676.56;;;-3.50
64790;BMP280;51223;51.816;5.862;2022-12-18T05:00:19;102679.84;;;-3.43
64790;BMP280;51223;51.816;5.862;2022-12-18T05:02:44;102686.22;;;-3.57
64790;BMP280;51223;51.816;5.862;2022-12-18T05:05:10;102695.53;;;-3.63
64790;BMP280;51223;51.816;5.862;2022-12-18T05:07:36;102699.06;;;-3.53
64790;BMP280;51223;51.816;5.862;2022-12-18T05:10:03;102694.94;;;-3.45
64790;BMP280;51223;51.816;5.862;2022-12-18T05:12:30;102704.56;;;-3.48
64790;BMP280;51223;51.816;5.862;2022-12-18T05:14:56;102707.84;;;-3.51
64790;BMP280;51223;51.816;5.862;2022-12-18T05:17:22;102718.53;;;-3.49
64790;BMP280;51223;51.816;5.862;2022-12-18T05:19:48;102722.16;;;-3.59
64790;BMP280;51223;51.816;5.862;2022-12-18T05:22:14;102725.13;;;-3.50
64790;BMP280;51223;51.816;5.862;2022-12-18T05:24:39;102714.16;;;-3.55
64790;BMP280;51223;51.816;5.862;2022-12-18T05:27:05;102724.06;;;-3.64
64790;BMP280;51223;51.816;5.862;2022-12-18T05:29:31;102735.84;;;-3.64
64790;BMP280;51223;51.816;5.862;2022-12-18T05:31:57;102736.41;;;-3.57
64790;BMP280;51223;51.816;5.862;2022-12-18T05:34:23;102729.84;;;-3.71
64790;BMP280;51223;51.816;5.862;2022-12-18T05:36:49;102728.97;;;-3.56
64790;BMP280;51223;51.816;5.862;2022-12-18T05:39:14;102730.59;;;-3.50
64790;BMP280;51223;51.816;5.862;2022-12-18T05:41:40;102727.03;;;-3.46
64790;BMP280;51223;51.816;5.862;2022-12-18T05:44:06;102723.25;;;-3.70
64790;BMP280;51223;51.816;5.862;2022-12-18T05:46:32;102726.81;;;-3.59
64790;BMP280;51223;51.816;5.862;2022-12-18T05:49:01;102728.69;;;-3.50
64790;BMP280;51223;51.816;5.862;2022-12-18T05:51:27;102715.50;;;-3.43
64790;BMP280;51223;51.816;5.862;2022-12-18T05:53:53;102723.72;;;-3.38
64790;BMP280;51223;51.816;5.862;2022-12-18T05:56:21;102711.34;;;-3.35
64790;BMP280;51223;51.816;5.862;2022-12-18T05:58:51;102705.03;;;-3.35
64790;BMP280;51223;51.816;5.862;2022-12-18T06:01:20;102703.06;;;-3.30
64790;BMP280;51223;51.816;5.862;2022-12-18T06:03:46;102691.53;;;-3.27
64790;BMP280;51223;51.816;5.862;2022-12-18T06:06:16;102686.84;;;-3.16
64790;BMP280;51223;51.816;5.862;2022-12-18T06:08:42;102681.31;;;-3.11
64790;BMP280;51223;51.816;5.862;2022-12-18T06:11:08;102680.44;;;-3.01
64790;BMP280;51223;51.816;5.862;2022-12-18T06:13:34;102680.69;;;-2.98
64790;BMP280;51223;51.816;5.862;2022-12-18T06:16:03;102679.50;;;-2.87
64790;BMP280;51223;51.816;5.862;2022-12-18T06:18:28;102674.56;;;-2.85
64790;BMP280;51223;51.816;5.862;2022-12-18T06:20:58;102666.31;;;-2.80
64790;BMP280;51223;51.816;5.862;2022-12-18T06:23:24;102669.88;;;-2.84
64790;BMP280;51223;51.816;5.862;2022-12-18T06:25:51;102672.63;;;-2.84
64790;BMP280;51223;51.816;5.862;2022-12-18T06:28:16;102668.53;;;-2.87
64790;BMP280;51223;51.816;5.862;2022-12-18T06:30:47;102674.06;;;-2.92
64790;BMP280;51223;51.816;5.862;2022-12-18T06:33:14;102671.31;;;-2.92
64790;BMP280;51223;51.816;5.862;2022-12-18T06:35:40;102665.00;;;-2.92
64790;BMP280;51223;51.816;5.862;2022-12-18T06:38:07;102659.44;;;-2.82
64790;BMP280;51223;51.816;5.862;2022-12-18T06:40:33;102660.00;;;-2.80
64790;BMP280;51223;51.816;5.862;2022-12-18T06:42:58;102643.78;;;-2.82
64790;BMP280;51223;51.816;5.862;2022-12-18T06:45:24;102651.25;;;-2.87
64790;BMP280;51223;51.816;5.862;2022-12-18T06:47:50;102648.72;;;-2.79
64790;BMP280;51223;51.816;5.862;2022-12-18T06:50:17;102649.78;;;-2.74
64790;BMP280;51223;51.816;5.862;2022-12-18T06:52:42;102639.91;;;-2.81
64790;BMP280;51223;51.816;5.862;2022-12-18T06:55:10;102640.66;;;-2.70
64790;BMP280;51223;51.816;5.862;2022-12-18T06:57:36;102647.56;;;-2.72
64790;BMP280;51223;51.816;5.862;2022-12-18T07:00:05;102642.66;;;-2.75
64790;BMP280;51223;51.816;5.862;2022-12-18T07:02:31;102631.41;;;-2.79
64790;BMP280;51223;51.816;5.862;2022-12-18T07:04:58;102635.28;;;-2.80
64790;BMP280;51223;51.816;5.862;2022-12-18T07:07:24;102637.22;;;-2.86
64790;BMP280;51223;51.816;5.862;2022-12-18T07:09:50;102640.78;;;-2.80
64790;BMP280;51223;51.816;5.862;2022-12-18T07:12:16;102634.94;;;-2.73
64790;BMP280;51223;51.816;5.862;2022-12-18T07:14:42;102631.41;;;-2.79
64790;BMP280;51223;51.816;5.862;2022-12-18T07:17:08;102627.00;;;-2.75
64790;BMP280;51223;51.816;5.862;2022-12-18T07:19:34;102632.25;;;-2.79
64790;BMP280;51223;51.816;5.862;2022-12-18T07:22:00;102642.13;;;-2.78
64790;BMP280;51223;51.816;5.862;2022-12-18T07:24:26;102637.97;;;-2.75
64790;BMP280;51223;51.816;5.862;2022-12-18T07:26:52;102637.97;;;-2.75
64790;BMP280;51223;51.816;5.862;2022-12-18T07:29:18;102638.22;;;-2.71
64790;BMP280;51223;51.816;5.862;2022-12-18T07:31:44;102633.31;;;-2.74
64790;BMP280;51223;51.816;5.862;2022-12-18T07:34:11;102635.75;;;-2.73
64790;BMP280;51223;51.816;5.862;2022-12-18T07:36:37;102620.44;;;-2.79
64790;BMP280;51223;51.816;5.862;2022-12-18T07:39:03;102622.06;;;-2.78
64790;BMP280;51223;51.816;5.862;2022-12-18T07:41:29;102623.91;;;-2.68
64790;BMP280;51223;51.816;5.862;2022-12-18T07:43:54;102620.09;;;-2.72
64790;BMP280;51223;51.816;5.862;2022-12-18T07:46:20;102620.88;;;-2.67
64790;BMP280;51223;51.816;5.862;2022-12-18T07:48:46;102608.81;;;-2.71
64790;BMP280;51223;51.816;5.862;2022-12-18T07:51:12;102608.81;;;-2.71
64790;BMP280;51223;51.816;5.862;2022-12-18T07:53:38;102596.66;;;-2.65
64790;BMP280;51223;51.816;5.862;2022-12-18T07:56:06;102585.38;;;-2.58
64790;BMP280;51223;51.816;5.862;2022-12-18T07:58:33;102578.19;;;-2.54
64790;BMP280;51223;51.816;5.862;2022-12-18T08:01:06;102576.78;;;-2.52
64790;BMP280;51223;51.816;5.862;2022-12-18T08:03:32;102559.19;;;-2.51
64790;BMP280;51223;51.816;5.862;2022-12-18T08:06:02;102563.78;;;-2.46
64790;BMP280;51223;51.816;5.862;2022-12-18T08:08:29;102562.91;;;-2.41
64790;BMP280;51223;51.816;5.862;2022-12-18T08:10:55;102574.38;;;-2.29
64790;BMP280;51223;51.816;5.862;2022-12-18T08:13:22;102582.13;;;-2.36
64790;BMP280;51223;51.816;5.862;2022-12-18T08:16:05;102588.56;;;-2.22
64790;BMP280;51223;51.816;5.862;2022-12-18T08:18:36;102580.47;;;-1.90
64790;BMP280;51223;51.816;5.862;2022-12-18T08:21:16;102577.81;;;-1.76
64790;BMP280;51223;51.816;5.862;2022-12-18T08:23:42;102577.16;;;-1.87
64790;BMP280;51223;51.816;5.862;2022-12-18T08:26:08;102573.22;;;-1.80
64790;BMP280;51223;51.816;5.862;2022-12-18T08:28:34;102573.56;;;-1.68
64790;BMP280;51223;51.816;5.862;2022-12-18T08:31:00;102571.81;;;-1.59
64790;BMP280;51223;51.816;5.862;2022-12-18T08:33:26;102566.84;;;-1.57
64790;BMP280;51223;51.816;5.862;2022-12-18T08:35:52;102559.09;;;-1.55
64790;BMP280;51223;51.816;5.862;2022-12-18T08:38:18;102564.34;;;-1.40
64790;BMP280;51223;51.816;5.862;2022-12-18T08:40:44;102566.97;;;-1.48
64790;BMP280;51223;51.816;5.862;2022-12-18T08:43:10;102568.81;;;-1.44
64790;BMP280;51223;51.816;5.862;2022-12-18T08:45:55;102574.19;;;-1.52
64790;BMP280;51223;51.816;5.862;2022-12-18T08:48:21;102586.66;;;-1.41
64790;BMP280;51223;51.816;5.862;2022-12-18T08:50:56;102567.19;;;-1.45
64790;BMP280;51223;51.816;5.862;2022-12-18T08:53:26;102567.25;;;-1.31
64790;BMP280;51223;51.816;5.862;2022-12-18T08:55:52;102575.81;;;-1.51
64790;BMP280;51223;51.816;5.862;2022-12-18T08:58:19;102570.53;;;-1.48
64790;BMP280;51223;51.816;5.862;2022-12-18T09:00:45;102568.22;;;-1.41
64790;BMP280;51223;51.816;5.862;2022-12-18T09:03:16;102574.72;;;-1.32
64790;BMP280;51223;51.816;5.862;2022-12-18T09:05:42;102582.72;;;-1.35
64790;BMP280;51223;51.816;5.862;2022-12-18T09:08:08;102578.00;;;-0.97
64790;BMP280;51223;51.816;5.862;2022-12-18T09:10:41;102573.19;;;-1.05
64790;BMP280;51223;51.816;5.862;2022-12-18T09:13:07;102565.09;;;-1.15
64790;BMP280;51223;51.816;5.862;2022-12-18T09:15:33;102573.50;;;-0.93
64790;BMP280;51223;51.816;5.862;2022-12-18T09:17:59;102564.44;;;-0.94
64790;BMP280;51223;51.816;5.862;2022-12-18T09:20:25;102574.31;;;-0.93
64790;BMP280;51223;51.816;5.862;2022-12-18T09:22:53;102567.59;;;-0.86
64790;BMP280;51223;51.816;5.862;2022-12-18T09:25:19;102564.34;;;-0.88
64790;BMP280;51223;51.816;5.862;2022-12-18T09:27:47;102569.22;;;-0.99
64790;BMP280;51223;51.816;5.862;2022-12-18T09:30:12;102562.81;;;-0.95
64790;BMP280;51223;51.816;5.862;2022-12-18T09:32:38;102577.47;;;-0.99
64790;BMP280;51223;51.816;5.862;2022-12-18T09:35:04;102581.88;;;-0.98
64790;BMP280;51223;51.816;5.862;2022-12-18T09:37:30;102582.28;;;-0.91
64790;BMP280;51223;51.816;5.862;2022-12-18T09:39:56;102578.41;;;-0.90
64790;BMP280;51223;51.816;5.862;2022-12-18T09:42:22;102571.78;;;-0.89
64790;BMP280;51223;51.816;5.862;2022-12-18T09:44:53;102565.16;;;-0.88
64790;BMP280;51223;51.816;5.862;2022-12-18T09:47:27;102561.69;;;-0.94
64790;BMP280;51223;51.816;5.862;2022-12-18T09:50:00;102550.97;;;-0.95
64790;BMP280;51223;51.816;5.862;2022-12-18T09:52:33;102557.72;;;-0.87
64790;BMP280;51223;51.816;5.862;2022-12-18T09:55:09;102553.94;;;-0.91
64790;BMP280;51223;51.816;5.862;2022-12-18T09:57:39;102548.88;;;-0.71
64790;BMP280;51223;51.816;5.862;2022-12-18T10:00:16;102551.72;;;-0.76
64790;BMP280;51223;51.816;5.862;2022-12-18T10:02:43;102550.59;;;-0.75
64790;BMP280;51223;51.816;5.862;2022-12-18T10:08:34;102530.91;;;-0.68
64790;BMP280;51223;51.816;5.862;2022-12-18T10:14:23;102534.38;;;-0.63
64790;BMP280;51223;51.816;5.862;2022-12-18T10:25:15;102520.41;;;-0.52
64790;BMP280;51223;51.816;5.862;2022-12-18T10:27:23;102511.72;;;-0.46
64790;BMP280;51223;51.816;5.862;2022-12-18T10:29:49;102511.72;;;-0.46
64790;BMP280;51223;51.816;5.862;2022-12-18T10:32:19;102521.22;;;-0.38
64790;BMP280;51223;51.816;5.862;2022-12-18T10:34:49;102519.72;;;-0.30
64790;BMP280;51223;51.816;5.862;2022-12-18T10:37:17;102515.72;;;-0.38
64790;BMP280;51223;51.816;5.862;2022-12-18T10:39:45;102505.94;;;-0.30
64790;BMP280;51223;51.816;5.862;2022-12-18T10:42:17;102504.97;;;-0.12
64790;BMP280;51223;51.816;5.862;2022-12-18T10:44:43;102503.38;;;-0.27
64790;BMP280;51223;51.816;5.862;2022-12-18T10:47:15;102499.50;;;-0.26
64790;BMP280;51223;51.816;5.862;2022-12-18T10:49:49;102494.69;;;-0.20
64790;BMP280;51223;51.816;5.862;2022-12-18T10:52:21;102486.41;;;-0.20
64790;BMP280;51223;51.816;5.862;2022-12-18T10:54:53;102479.97;;;-0.16
64790;BMP280;51223;51.816;5.862;2022-12-18T10:59:54;102475.53;;;-0.03
64790;BMP280;51223;51.816;5.862;2022-12-18T11:02:37;102471.75;;;0.07
64790;BMP280;51223;51.816;5.862;2022-12-18T11:07:51;102457.03;;;-0.03
64790;BMP280;51223;51.816;5.862;2022-12-18T11:10:21;102462.56;;;-0.03
64790;BMP280;51223;51.816;5.862;2022-12-18T11:12:47;102452.63;;;0.10
64790;BMP280;51223;51.816;5.862;2022-12-18T11:15:16;102461.22;;;0.09
64790;BMP280;51223;51.816;5.862;2022-12-18T11:17:47;102459.66;;;0.16
64790;BMP280;51223;51.816;5.862;2022-12-18T11:20:35;102458.69;;;0.21
64790;BMP280;51223;51.816;5.862;2022-12-18T11:23:04;102444.41;;;0.19
64790;BMP280;51223;51.816;5.862;2022-12-18T11:25:32;102435.00;;;0.20
64790;BMP280;51223;51.816;5.862;2022-12-18T11:28:23;102441.84;;;0.22
64790;BMP280;51223;51.816;5.862;2022-12-18T11:31:09;102436.31;;;0.22
64790;BMP280;51223;51.816;5.862;2022-12-18T11:33:39;102422.72;;;0.26
64790;BMP280;51223;51.816;5.862;2022-12-18T11:36:08;102428.75;;;0.37
64790;BMP280;51223;51.816;5.862;2022-12-18T11:38:39;102428.09;;;0.31
64790;BMP280;51223;51.816;5.862;2022-12-18T11:44:22;102425.06;;;0.41
64790;BMP280;51223;51.816;5.862;2022-12-18T11:47:00;102429.31;;;0.47
64790;BMP280;51223;51.816;5.862;2022-12-18T11:49:33;102434.03;;;0.47
64790;BMP280;51223;51.816;5.862;2022-12-18T11:52:22;102428.38;;;0.52
64790;BMP280;51223;51.816;5.862;2022-12-18T11:54:55;102430.50;;;0.55
64790;BMP280;51223;51.816;5.862;2022-12-18T11:57:31;102419.59;;;0.50
64790;BMP280;51223;51.816;5.862;2022-12-18T12:00:12;102422.53;;;0.53
64790;BMP280;51223;51.816;5.862;2022-12-18T12:11:01;102391.84;;;0.55
64790;BMP280;51223;51.816;5.862;2022-12-18T12:22:25;102376.16;;;0.73
64790;BMP280;51223;51.816;5.862;2022-12-18T12:25:01;102375.47;;;0.58
64790;BMP280;51223;51.816;5.862;2022-12-18T12:27:51;102370.66;;;0.73
64790;BMP280;51223;51.816;5.862;2022-12-18T12:33:59;102369.16;;;0.67
64790;BMP280;51223;51.816;5.862;2022-12-18T12:38:40;102371.59;;;0.68
64790;BMP280;51223;51.816;5.862;2022-12-18T12:41:13;102361.38;;;0.69
64790;BMP280;51223;51.816;5.862;2022-12-18T12:44:02;102359.47;;;0.78
64790;BMP280;51223;51.816;5.862;2022-12-18T12:46:33;102344.66;;;0.74
64790;BMP280;51223;51.816;5.862;2022-12-18T12:49:02;102346.94;;;0.72
64790;BMP280;51223;51.816;5.862;2022-12-18T12:51:34;102348.56;;;0.73
64790;BMP280;51223;51.816;5.862;2022-12-18T12:54:04;102341.41;;;0.72
64790;BMP280;51223;51.816;5.862;2022-12-18T12:56:43;102335.88;;;0.72
64790;BMP280;51223;51.816;5.862;2022-12-18T12:59:22;102333.47;;;0.79
64790;BMP280;51223;51.816;5.862;2022-12-18T13:04:54;102310.38;;;0.75
64790;BMP280;51223;51.816;5.862;2022-12-18T13:07:34;102319.81;;;0.74
64790;BMP280;51223;51.816;5.862;2022-12-18T13:12:59;102301.13;;;0.71
64790;BMP280;51223;51.816;5.862;2022-12-18T13:15:28;102306.50;;;0.76
64790;BMP280;51223;51.816;5.862;2022-12-18T13:34:27;102306.72;;;0.88
64790;BMP280;51223;51.816;5.862;2022-12-18T13:36:57;102289.59;;;0.77
64790;BMP280;51223;51.816;5.862;2022-12-18T13:39:42;102298.56;;;0.83
64790;BMP280;51223;51.816;5.862;2022-12-18T13:44:35;102289.47;;;0.82
64790;BMP280;51223;51.816;5.862;2022-12-18T13:47:04;102287.38;;;0.88
64790;BMP280;51223;51.816;5.862;2022-12-18T13:49:41;102284.63;;;0.88
64790;BMP280;51223;51.816;5.862;2022-12-18T13:52:21;102283.97;;;0.82
64790;BMP280;51223;51.816;5.862;2022-12-18T13:54:51;102282.81;;;0.83
64790;BMP280;51223;51.816;5.862;2022-12-18T13:57:37;102282.50;;;0.85
64790;BMP280;51223;51.816;5.862;2022-12-18T14:02:49;102278.94;;;0.84
64790;BMP280;51223;51.816;5.862;2022-12-18T14:07:54;102263.66;;;0.87
64790;BMP280;51223;51.816;5.862;2022-12-18T14:10:20;102263.34;;;0.88
64790;BMP280;51223;51.816;5.862;2022-12-18T14:12:48;102266.91;;;0.89
64790;BMP280;51223;51.816;5.862;2022-12-18T14:18:13;102259.44;;;0.89
64790;BMP280;51223;51.816;5.862;2022-12-18T14:20:47;102256.34;;;0.91
64790;BMP280;51223;51.816;5.862;2022-12-18T14:23:36;102259.13;;;0.91
64790;BMP280;51223;51.816;5.862;2022-12-18T14:26:25;102255.22;;;0.92
64790;BMP280;51223;51.816;5.862;2022-12-18T14:28:50;102239.78;;;0.91
64790;BMP280;51223;51.816;5.862;2022-12-18T14:31:22;102232.94;;;0.88
64790;BMP280;51223;51.816;5.862;2022-12-18T14:33:49;102228.72;;;0.91
64790;BMP280;51223;51.816;5.862;2022-12-18T14:36:18;102236.38;;;0.85
64790;BMP280;51223;51.816;5.862;2022-12-18T14:38:49;102228.88;;;0.94
64790;BMP280;51223;51.816;5.862;2022-12-18T14:41:17;102233.75;;;0.89
64790;BMP280;51223;51.816;5.862;2022-12-18T14:43:45;102236.38;;;0.85
64790;BMP280;51223;51.816;5.862;2022-12-18T14:46:37;102230.03;;;0.85
64790;BMP280;51223;51.816;5.862;2022-12-18T14:49:18;102230.19;;;0.88
64790;BMP280;51223;51.816;5.862;2022-12-18T14:51:53;102230.50;;;0.87
64790;BMP280;51223;51.816;5.862;2022-12-18T14:54:20;102232.13;;;0.88
64790;BMP280;51223;51.816;5.862;2022-12-18T14:56:49;102230.03;;;0.85
64790;BMP280;51223;51.816;5.862;2022-12-18T14:59:19;102225.97;;;0.82
64790;BMP280;51223;51.816;5.862;2022-12-18T15:04:31;102229.69;;;0.86
64790;BMP280;51223;51.816;5.862;2022-12-18T15:07:18;102228.53;;;0.79
64790;BMP280;51223;51.816;5.862;2022-12-18T15:10:11;102221.69;;;0.76
64790;BMP280;51223;51.816;5.862;2022-12-18T15:12:40;102211.50;;;0.85
64790;BMP280;51223;51.816;5.862;2022-12-18T15:23:15;102204.00;;;0.77
64790;BMP280;51223;51.816;5.862;2022-12-18T15:25:42;102207.25;;;0.71
64790;BMP280;51223;51.816;5.862;2022-12-18T15:28:36;102207.09;;;0.76
64790;BMP280;51223;51.816;5.862;2022-12-18T15:31:17;102210.31;;;0.69
64790;BMP280;51223;51.816;5.862;2022-12-18T15:36:19;102198.47;;;0.69
64790;BMP280;51223;51.816;5.862;2022-12-18T15:38:48;102195.88;;;0.63
64790;BMP280;51223;51.816;5.862;2022-12-18T15:41:16;102193.28;;;0.67
64790;BMP280;51223;51.816;5.862;2022-12-18T15:43:42;102199.13;;;0.66
64790;BMP280;51223;51.816;5.862;2022-12-18T15:46:12;102199.28;;;0.69
64790;BMP280;51223;51.816;5.862;2022-12-18T15:48:43;102189.53;;;0.72
64790;BMP280;51223;51.816;5.862;2022-12-18T15:51:16;102188.06;;;0.66
64790;BMP280;51223;51.816;5.862;2022-12-18T15:53:43;102199.94;;;0.66
64790;BMP280;51223;51.816;5.862;2022-12-18T15:56:10;102206.25;;;0.67
64790;BMP280;51223;51.816;5.862;2022-12-18T15:58:55;102204.66;;;0.74
64790;BMP280;51223;51.816;5.862;2022-12-18T16:01:23;102209.50;;;0.69
64790;BMP280;51223;51.816;5.862;2022-12-18T16:03:49;102206.91;;;0.63
64790;BMP280;51223;51.816;5.862;2022-12-18T16:06:15;102214.38;;;0.72
64790;BMP280;51223;51.816;5.862;2022-12-18T16:08:41;102210.00;;;0.71